createdAt,value
2019-02-06T00:01:33.179Z,214.30
2019-02-06T00:05:44.132Z,221.00
2019-02-06T00:09:54.937Z,227.70
2019-02-06T00:14:05.979Z,219.53
2019-02-06T00:18:16.803Z,214.97
2019-02-06T00:22:29.117Z,222.90
2019-02-06T00:26:40.037Z,216.10
2019-02-06T00:30:50.856Z,212.30
2019-02-06T00:35:01.705Z,221.47
2019-02-06T00:39:12.513Z,215.07
2019-02-06T00:43:23.361Z,228.07
2019-02-06T00:51:20.828Z,233.67
2019-02-06T00:55:31.940Z,217.60
2019-02-06T01:27:10.243Z,228.77
2019-02-06T01:31:37.572Z,219.90
2019-02-06T01:36:04.999Z,211.70
2019-02-06T01:40:32.180Z,214.60
2019-02-06T01:44:59.568Z,216.97
2019-02-06T01:49:26.832Z,209.43
2019-02-06T01:53:54.392Z,208.70
2019-02-06T01:58:21.679Z,217.63
2019-02-06T02:02:49.139Z,213.10
2019-02-06T02:07:16.616Z,219.17
2019-02-06T02:11:44.083Z,218.60
2019-02-06T02:16:11.563Z,216.63
2019-02-06T02:20:38.699Z,215.50
2019-02-06T02:25:06.877Z,207.07
2019-02-06T02:29:34.431Z,215.33
2019-02-06T02:34:01.828Z,215.07
2019-02-06T02:38:29.237Z,220.43
2019-02-06T02:42:56.819Z,217.80
2019-02-06T02:47:24.398Z,226.97
2019-02-06T02:51:51.687Z,216.13
2019-02-06T02:56:19.068Z,213.13
2019-02-06T03:00:47.582Z,219.63
2019-02-06T03:05:15.392Z,219.50
2019-02-06T03:09:42.500Z,228.17
2019-02-06T03:14:09.716Z,220.53
2019-02-06T03:18:37.175Z,216.10
2019-02-06T03:23:04.825Z,213.20
2019-02-06T03:27:31.955Z,220.43
2019-02-06T03:31:59.398Z,220.97
2019-02-06T03:36:26.634Z,221.60
2019-02-06T03:40:54.033Z,215.30
2019-02-06T03:45:23.130Z,220.97
2019-02-06T03:49:50.655Z,217.37
2019-02-06T03:54:17.984Z,224.80
2019-02-06T03:58:45.967Z,214.70
2019-02-06T04:03:13.440Z,215.13
2019-02-06T04:07:40.691Z,226.17
2019-02-06T04:12:08.106Z,223.50
2019-02-06T04:16:35.577Z,228.83
2019-02-06T04:21:03.278Z,215.70
2019-02-06T04:25:30.709Z,223.10
2019-02-06T04:29:58.225Z,226.97
2019-02-06T04:34:26.030Z,229.57
2019-02-06T04:38:53.139Z,220.77
2019-02-06T04:43:19.785Z,229.80
2019-02-06T04:47:47.160Z,224.87
2019-02-06T04:52:14.083Z,222.03
2019-02-06T04:56:41.319Z,223.37
2019-02-06T05:01:08.718Z,225.83
2019-02-06T05:05:35.944Z,225.33
2019-02-06T05:10:03.393Z,222.33
2019-02-06T05:14:30.661Z,230.40
2019-02-06T05:18:58.212Z,221.53
2019-02-06T05:23:25.661Z,224.93
2019-02-06T05:27:52.884Z,220.70
2019-02-06T05:32:20.021Z,226.27
2019-02-06T05:36:50.574Z,222.83
2019-02-06T05:41:16.193Z,212.63
2019-02-06T05:45:43.587Z,223.90
2019-02-06T05:50:16.397Z,213.93
2019-02-06T05:54:43.493Z,222.37
2019-02-06T05:59:10.973Z,222.90
2019-02-06T06:03:38.159Z,217.43
2019-02-06T06:08:05.672Z,225.80
2019-02-06T06:12:33.104Z,221.03
2019-02-06T06:17:00.605Z,221.97
2019-02-06T06:21:28.069Z,221.83
2019-02-06T06:25:55.539Z,220.23
2019-02-06T06:30:22.914Z,216.63
2019-02-06T06:34:49.853Z,216.63
2019-02-06T06:39:16.928Z,215.40
2019-02-06T06:43:44.333Z,216.40
2019-02-06T06:48:11.590Z,215.27
2019-02-06T06:52:39.119Z,215.10
2019-02-06T06:57:06.122Z,212.70
2019-02-06T07:01:33.408Z,213.63
2019-02-06T07:06:00.913Z,216.37
2019-02-06T07:10:27.925Z,221.87
2019-02-06T07:14:55.091Z,216.97
2019-02-06T07:19:22.028Z,208.87
2019-02-06T07:23:49.718Z,202.10
2019-02-06T07:28:17.141Z,208.57
2019-02-06T07:32:44.751Z,210.00
2019-02-06T07:37:11.886Z,213.07
2019-02-06T07:41:39.270Z,211.00
2019-02-06T07:46:06.434Z,207.07
2019-02-06T07:50:34.593Z,225.07
2019-02-06T07:55:01.990Z,209.90
2019-02-06T07:59:29.606Z,197.60
2019-02-06T08:03:57.020Z,211.70
2019-02-06T08:08:35.368Z,211.67
2019-02-06T08:12:53.257Z,207.33
2019-02-06T08:17:20.394Z,204.13
2019-02-06T08:21:49.835Z,200.50
2019-02-06T08:26:17.584Z,204.03
2019-02-06T08:30:44.782Z,216.33
2019-02-06T08:35:12.174Z,210.27
2019-02-06T08:39:39.508Z,223.07
2019-02-06T08:44:06.707Z,217.23
2019-02-06T08:48:33.828Z,199.63
2019-02-06T08:53:01.244Z,218.57
2019-02-06T08:57:28.171Z,209.43
2019-02-06T09:01:56.288Z,215.93
2019-02-06T09:06:23.425Z,222.07
2019-02-06T09:10:50.813Z,223.23
2019-02-06T09:15:18.244Z,225.33
2019-02-06T09:19:45.971Z,232.13
2019-02-06T09:24:13.918Z,218.43
2019-02-06T09:28:41.230Z,215.60
2019-02-06T09:33:08.744Z,220.00
2019-02-06T09:37:36.322Z,225.40
2019-02-06T09:42:03.741Z,221.73
2019-02-06T09:46:30.862Z,232.80
2019-02-06T09:50:58.416Z,226.07
2019-02-06T09:55:25.824Z,224.27
2019-02-06T09:59:54.097Z,224.53
2019-02-06T10:04:21.360Z,230.77
2019-02-06T10:08:48.501Z,227.83
2019-02-06T10:13:16.591Z,234.27
2019-02-06T10:17:43.978Z,235.03
2019-02-06T10:22:11.093Z,236.27
2019-02-06T10:26:38.670Z,228.73
2019-02-06T10:31:05.862Z,230.13
2019-02-06T10:35:32.796Z,234.20
2019-02-06T10:40:00.032Z,241.03
2019-02-06T10:44:27.480Z,239.60
2019-02-06T10:48:56.702Z,226.53
2019-02-06T10:53:24.369Z,238.60
2019-02-06T10:57:51.649Z,230.27
2019-02-06T11:02:18.898Z,229.87
2019-02-06T11:06:46.470Z,239.37
2019-02-06T11:11:15.130Z,239.77
2019-02-06T11:15:43.281Z,238.73
2019-02-06T11:20:17.249Z,233.70
2019-02-06T11:24:45.801Z,232.13
2019-02-06T13:29:18.507Z,214.00
2019-02-06T13:33:45.963Z,210.97
2019-02-06T13:38:13.140Z,214.20
2019-02-06T13:42:41.591Z,219.20
2019-02-06T13:47:08.669Z,199.90
2019-02-06T13:51:35.835Z,204.40
2019-02-06T13:56:03.306Z,213.87
2019-02-06T14:00:32.605Z,214.63
2019-02-06T14:04:59.551Z,212.70
2019-02-06T14:09:26.919Z,214.40
2019-02-06T14:13:54.189Z,206.23
2019-02-06T14:18:23.131Z,202.93
2019-02-06T14:22:59.357Z,210.90
2019-02-06T14:27:32.279Z,208.30
2019-02-06T14:32:30.826Z,201.87
2019-02-06T14:37:20.462Z,210.77
2019-02-06T14:42:06.285Z,211.00
2019-02-06T14:46:48.891Z,219.10
2019-02-06T14:51:43.782Z,212.20
2019-02-06T14:56:34.180Z,220.00
2019-02-06T15:01:31.835Z,216.70
2019-02-06T15:06:07.767Z,215.20
2019-02-06T15:10:43.980Z,214.37
2019-02-06T15:15:20.126Z,211.50
2019-02-06T15:19:56.742Z,212.37
2019-02-06T15:24:48.028Z,213.67
2019-02-06T15:29:26.986Z,210.63
2019-02-06T15:34:02.601Z,211.77
2019-02-06T15:39:01.492Z,207.50
2019-02-06T15:43:31.922Z,208.77
2019-02-06T15:48:19.496Z,208.00
2019-02-06T15:52:56.190Z,208.20
2019-02-06T15:57:45.980Z,207.90
2019-02-06T16:02:52.009Z,203.80
2019-02-06T16:07:56.020Z,212.53
2019-02-06T16:12:35.155Z,207.03
2019-02-06T16:17:30.038Z,207.67
2019-02-06T16:22:34.310Z,203.17
2019-02-06T16:27:25.903Z,205.33
2019-02-06T16:32:17.607Z,210.70
2019-02-06T16:37:03.535Z,207.27
2019-02-06T16:41:53.070Z,211.93
2019-02-06T16:46:26.833Z,206.43
2019-02-06T16:51:08.908Z,208.67
2019-02-06T16:56:13.103Z,205.23
2019-02-06T17:00:43.497Z,209.83
2019-02-06T17:05:31.136Z,204.27
2019-02-06T17:10:10.216Z,213.77
2019-02-06T17:14:49.864Z,204.53
2019-02-06T17:19:29.455Z,205.10
2019-02-06T17:24:18.778Z,207.57
2019-02-06T17:28:52.034Z,204.17
2019-02-06T17:33:50.720Z,200.40
2019-02-06T17:38:45.067Z,201.10
2019-02-06T17:43:27.401Z,200.87
2019-02-06T17:48:12.418Z,199.00
2019-02-06T17:52:51.836Z,200.43
2019-02-06T17:57:19.056Z,210.33
2019-02-06T18:01:49.352Z,207.60
2019-02-06T18:06:17.636Z,204.00
2019-02-06T18:10:46.440Z,198.17
2019-02-06T18:15:14.737Z,198.17
2019-02-06T18:19:41.891Z,197.83
2019-02-06T18:24:09.476Z,205.37
2019-02-06T18:28:38.053Z,202.33
2019-02-06T18:33:06.731Z,200.07
2019-02-06T18:37:33.875Z,203.03
2019-02-06T18:42:00.768Z,193.00
2019-02-06T18:46:28.291Z,203.27
2019-02-06T18:50:55.547Z,199.47
2019-02-06T18:55:24.401Z,206.83
2019-02-06T18:59:51.535Z,194.57
2019-02-06T19:04:18.839Z,197.10
2019-02-06T19:08:45.486Z,198.57
2019-02-06T19:13:12.659Z,222.00
2019-02-06T19:17:40.130Z,190.73
2019-02-06T19:22:09.442Z,199.13
2019-02-06T19:26:37.854Z,204.63
2019-02-06T19:31:04.963Z,198.77
2019-02-06T19:35:32.283Z,202.80
2019-02-06T19:39:59.760Z,203.37
2019-02-06T19:44:28.795Z,191.27
2019-02-06T19:48:56.049Z,191.67
2019-02-06T19:53:24.536Z,195.03
2019-02-06T19:57:52.069Z,205.20
2019-02-06T20:02:19.313Z,196.93
2019-02-06T20:06:46.375Z,195.73
2019-02-06T20:11:13.828Z,192.00
2019-02-06T20:15:41.043Z,194.17
2019-02-06T20:20:12.443Z,210.53
2019-02-06T20:24:39.687Z,191.53
2019-02-06T20:29:06.759Z,195.80
2019-02-06T20:33:34.267Z,198.57
2019-02-06T20:38:01.589Z,197.73
2019-02-06T20:42:29.281Z,204.13
2019-02-06T20:46:56.446Z,190.73
2019-02-06T20:51:24.594Z,194.97
2019-02-06T20:55:51.460Z,194.73
2019-02-06T21:00:27.200Z,194.53
2019-02-06T21:04:54.124Z,196.10
2019-02-06T21:09:21.347Z,199.30
2019-02-06T21:13:48.547Z,192.83
2019-02-06T21:18:15.984Z,191.27
2019-02-06T21:22:43.789Z,193.87
2019-02-06T21:27:11.177Z,209.23
2019-02-06T21:31:38.735Z,201.90
2019-02-06T21:35:49.645Z,200.93
2019-02-06T21:40:00.504Z,209.47
2019-02-06T21:44:11.483Z,199.70
2019-02-06T21:48:22.489Z,206.00
2019-02-06T21:52:33.272Z,235.33
2019-02-06T21:56:44.104Z,199.47
2019-02-06T22:00:55.252Z,202.10
2019-02-06T22:05:07.418Z,200.10
2019-02-06T22:09:18.549Z,212.83
2019-02-06T22:13:29.510Z,199.23
2019-02-06T22:17:40.435Z,204.30
2019-02-06T22:21:51.346Z,220.07
2019-02-06T22:26:02.177Z,204.17
2019-02-06T22:30:26.210Z,211.03
2019-02-06T22:34:37.296Z,196.33
2019-02-06T22:38:48.096Z,200.83
2019-02-06T22:43:00.302Z,214.17
2019-02-06T22:47:12.613Z,203.13
2019-02-06T22:51:23.531Z,214.30
2019-02-06T22:55:34.811Z,202.57
2019-02-06T22:59:47.441Z,201.10
2019-02-06T23:03:58.314Z,201.67
2019-02-06T23:08:09.736Z,198.57
2019-02-06T23:12:29.585Z,195.53
2019-02-06T23:16:40.419Z,201.53
2019-02-06T23:20:51.407Z,202.27
2019-02-06T23:25:01.328Z,206.20
2019-02-06T23:29:11.472Z,198.20
2019-02-06T23:33:22.460Z,201.33
2019-02-06T23:37:33.274Z,197.33
2019-02-06T23:41:44.771Z,190.57
2019-02-06T23:45:55.757Z,206.43
2019-02-06T23:50:09.775Z,207.07
2019-02-06T23:54:20.590Z,201.10
2019-02-06T23:58:31.633Z,197.37
